📊 Raw Sensor Data

Showing records 50176 to 50200 of 85,131 total

ID Distance (ft) Battery V Battery A Int Temp (°F) Int Humid (%) Ext Temp (°F) Solar V RSSI SNR Time Stamp
34968 15.1 4.05 0 51 41 49 5.10 -78 8 03/14/2025 02:15 PM
34967 15.0 4.04 0 52 40 50 5.10 -77 8 03/14/2025 02:00 PM
34966 15.1 4.04 0 54 39 52 5.10 -77 8 03/14/2025 01:45 PM
34965 -- 4.04 0 54 38 51 5.10 -80 8 03/14/2025 01:30 PM
34964 -- 4.04 0 53 39 52 5.10 -75 8 03/14/2025 01:15 PM
34963 -- 4.15 0 51 39 50 5.10 -74 8 03/14/2025 01:00 PM
34962 -- 4.04 0 52 37 50 5.10 -77 8 03/14/2025 12:45 PM
34961 15.1 4.04 0 49 39 48 5.10 -76 8 03/14/2025 12:30 PM
34960 -- 4.05 0 47 39 47 5.10 -78 8 03/14/2025 12:15 PM
34959 -- 4.04 0 45 40 46 5.10 -77 9 03/14/2025 12:00 PM
34958 -- 4.14 54 43 40 43 4.50 -81 8 03/14/2025 11:45 AM
34957 17.4 4.14 5 43 40 43 5.10 -83 7 03/14/2025 11:15 AM
34956 16.1 4.03 0 43 39 43 5.10 -87 7 03/14/2025 11:00 AM
34955 -- 4.03 0 43 39 43 5.00 -73 9 03/14/2025 10:45 AM
34954 -- 4.13 5 43 39 43 5.10 -77 9 03/14/2025 10:30 AM
34953 15.1 4.03 5 42 39 42 5.10 -76 8 03/14/2025 10:15 AM
34952 15.1 4.05 -10 42 39 42 4.50 -77 9 03/14/2025 09:45 AM
34951 15.1 4.13 26 41 39 42 4.50 -95 6 03/14/2025 09:30 AM
34950 16.7 4.05 0 41 39 41 4.50 -83 7 03/14/2025 09:15 AM
34949 32.5 4.03 15 41 39 41 4.50 -85 7 03/14/2025 09:00 AM
34948 15.1 4.05 0 41 39 41 4.50 -83 7 03/14/2025 08:45 AM
34947 17.4 4.04 0 40 40 41 4.50 -80 7 03/14/2025 08:30 AM
34946 15.0 3.96 0 40 40 41 4.50 -82 8 03/14/2025 08:15 AM
34945 15.1 3.95 0 40 40 41 4.50 -85 7 03/14/2025 08:00 AM
34944 15.1 3.99 -10 40 40 41 4.30 -85 7 03/14/2025 07:45 AM